createdAt,value
2018-05-21T00:00:45.396Z,12.80
2018-05-21T00:03:13.013Z,12.70
2018-05-21T00:05:40.669Z,12.70
2018-05-21T00:08:09.125Z,12.60
2018-05-21T00:10:36.704Z,12.60
2018-05-21T00:13:04.334Z,12.60
2018-05-21T00:15:31.911Z,12.60
2018-05-21T00:17:59.496Z,12.60
2018-05-21T00:20:27.131Z,12.50
2018-05-21T00:22:54.731Z,12.50
2018-05-21T00:25:23.099Z,12.40
2018-05-21T00:27:50.763Z,12.30
2018-05-21T00:30:18.320Z,12.40
2018-05-21T00:32:46.728Z,12.30
2018-05-21T00:35:14.410Z,12.30
2018-05-21T00:37:42.004Z,12.30
2018-05-21T00:40:09.604Z,12.30
2018-05-21T00:42:37.213Z,12.30
2018-05-21T00:45:05.236Z,12.20
2018-05-21T00:47:32.858Z,12.20
2018-05-21T00:50:00.426Z,12.10
2018-05-21T00:52:28.758Z,12.10
2018-05-21T00:55:08.298Z,12.10
2018-05-21T00:57:35.844Z,12.10
2018-05-21T01:00:03.435Z,12.10
2018-05-21T01:02:30.996Z,12.10
2018-05-21T01:04:58.603Z,12.00
2018-05-21T01:07:26.818Z,12.00
2018-05-21T01:09:54.418Z,12.00
2018-05-21T01:12:22.835Z,11.90
2018-05-21T01:14:50.403Z,11.90
2018-05-21T01:17:17.968Z,11.90
2018-05-21T01:19:45.619Z,11.90
2018-05-21T01:22:13.206Z,11.90
2018-05-21T01:24:40.916Z,11.90
2018-05-21T01:27:09.377Z,11.80
2018-05-21T01:29:37.010Z,11.80
2018-05-21T01:32:04.584Z,11.80
2018-05-21T01:34:32.174Z,11.80
2018-05-21T01:36:59.736Z,11.80
2018-05-21T01:39:27.314Z,11.80
2018-05-21T01:41:54.940Z,11.70
2018-05-21T01:44:22.485Z,11.70
2018-05-21T01:46:50.976Z,11.70
2018-05-21T01:49:18.528Z,11.70
2018-05-21T01:51:46.169Z,11.70
2018-05-21T01:54:13.968Z,11.70
2018-05-21T01:56:41.596Z,11.70
2018-05-21T01:59:09.200Z,11.70
2018-05-21T02:01:36.804Z,11.70
2018-05-21T02:04:04.361Z,11.70
2018-05-21T02:06:32.000Z,11.70
2018-05-21T02:08:59.612Z,11.70
2018-05-21T02:11:27.218Z,11.70
2018-05-21T02:13:55.578Z,11.60
2018-05-21T02:16:23.354Z,11.60
2018-05-21T02:18:51.048Z,11.60
2018-05-21T02:21:18.676Z,11.60
2018-05-21T02:23:46.313Z,11.50
2018-05-21T02:29:22.712Z,11.50
2018-05-21T02:31:50.563Z,11.50
2018-05-21T02:34:18.331Z,11.40
2018-05-21T02:36:45.984Z,11.40
2018-05-21T02:39:13.639Z,11.40
2018-05-21T02:41:41.308Z,11.30
2018-05-21T02:44:09.030Z,11.30
2018-05-21T02:46:36.653Z,11.30
2018-05-21T02:49:05.169Z,11.30
2018-05-21T02:51:32.912Z,11.20
2018-05-21T02:54:00.548Z,11.30
2018-05-21T02:56:28.124Z,11.20
2018-05-21T02:58:55.778Z,11.20
2018-05-21T03:01:23.471Z,11.20
2018-05-21T03:03:51.131Z,11.10
2018-05-21T03:06:18.891Z,11.10
2018-05-21T03:08:47.490Z,11.20
2018-05-21T03:11:15.115Z,11.10
2018-05-21T03:13:43.680Z,11.10
2018-05-21T03:16:11.302Z,11.10
2018-05-21T03:18:39.016Z,11.10
2018-05-21T03:21:06.773Z,11.10
2018-05-21T03:23:34.595Z,11.10
2018-05-21T03:26:02.346Z,11.10
2018-05-21T03:28:30.106Z,11.10
2018-05-21T03:30:57.804Z,11.10
2018-05-21T03:33:25.394Z,11.10
2018-05-21T03:35:53.097Z,11.10
2018-05-21T03:38:20.900Z,11.10
2018-05-21T03:40:48.723Z,11.10
2018-05-21T03:43:17.280Z,11.10
2018-05-21T03:45:45.744Z,11.10
2018-05-21T03:48:13.360Z,11.10
2018-05-21T03:50:41.111Z,11.10
2018-05-21T03:53:08.916Z,11.10
2018-05-21T03:55:36.664Z,11.20
2018-05-21T03:58:04.276Z,11.20
2018-05-21T04:00:43.808Z,11.20
2018-05-21T04:03:23.419Z,11.20
2018-05-21T04:05:51.090Z,11.20
2018-05-21T04:08:18.790Z,11.20
2018-05-21T04:10:46.530Z,11.20
2018-05-21T04:13:14.232Z,11.30
2018-05-21T04:15:41.805Z,11.30
2018-05-21T04:18:09.488Z,11.30
2018-05-21T04:20:37.093Z,11.40
2018-05-21T04:23:05.472Z,11.40
2018-05-21T04:25:33.267Z,11.40
2018-05-21T04:31:11.316Z,11.50
2018-05-21T04:33:39.061Z,11.50
2018-05-21T04:36:06.756Z,11.50
2018-05-21T04:38:34.409Z,11.50
2018-05-21T04:41:02.085Z,11.50
2018-05-21T04:43:29.873Z,11.50
2018-05-21T04:45:57.622Z,11.50
2018-05-21T04:48:26.344Z,11.60
2018-05-21T04:50:54.199Z,11.60
2018-05-21T04:53:21.976Z,11.60
2018-05-21T04:55:49.626Z,11.70
2018-05-21T04:58:17.924Z,11.70
2018-05-21T05:00:46.378Z,11.70
2018-05-21T05:03:13.997Z,11.80
2018-05-21T05:05:41.668Z,11.80
2018-05-21T05:08:09.347Z,11.80
2018-05-21T05:10:37.019Z,11.90
2018-05-21T05:13:04.849Z,11.90
2018-05-21T05:15:32.699Z,11.90
2018-05-21T05:18:01.034Z,12.00
2018-05-21T05:20:41.638Z,11.90
2018-05-21T05:23:09.445Z,12.00
2018-05-21T05:25:37.144Z,12.10
2018-05-21T05:28:04.756Z,12.10
2018-05-21T05:30:32.420Z,12.20
2018-05-21T05:33:00.214Z,12.20
2018-05-21T05:35:27.884Z,12.30
2018-05-21T05:37:55.542Z,12.30
2018-05-21T05:40:23.219Z,12.40
2018-05-21T05:42:50.851Z,12.50
2018-05-21T05:45:18.573Z,12.50
2018-05-21T05:47:46.286Z,12.60
2018-05-21T05:50:13.968Z,12.70
2018-05-21T05:52:41.666Z,12.70
2018-05-21T05:55:10.132Z,12.90
2018-05-21T05:57:37.918Z,12.80
2018-05-21T06:00:05.627Z,12.90
2018-05-21T06:02:34.160Z,13.00
2018-05-21T06:05:01.764Z,13.00
2018-05-21T06:07:29.574Z,13.10
2018-05-21T06:09:57.182Z,13.20
2018-05-21T06:12:24.953Z,13.20
2018-05-21T06:14:52.628Z,13.30
2018-05-21T06:17:20.357Z,13.40
2018-05-21T06:19:48.192Z,13.50
2018-05-21T06:22:15.919Z,13.60
2018-05-21T06:24:43.566Z,13.70
2018-05-21T06:27:11.529Z,13.90
2018-05-21T06:29:39.314Z,14.00
2018-05-21T06:32:07.013Z,14.10
2018-05-21T06:34:35.651Z,14.20
2018-05-21T06:37:03.466Z,14.30
2018-05-21T06:39:31.980Z,14.50
2018-05-21T06:41:59.799Z,14.50
2018-05-21T06:44:28.532Z,14.80
2018-05-21T06:46:56.308Z,14.70
2018-05-21T06:49:24.128Z,14.90
2018-05-21T06:51:52.703Z,15.20
2018-05-21T06:54:21.178Z,15.30
2018-05-21T06:56:48.791Z,15.20
2018-05-21T06:59:17.826Z,15.40
2018-05-21T07:01:45.612Z,15.60
2018-05-21T07:04:14.117Z,15.90
2018-05-21T07:06:41.832Z,15.90
2018-05-21T07:09:09.777Z,16.10
2018-05-21T07:11:38.199Z,16.40
2018-05-21T07:14:05.991Z,16.50
2018-05-21T07:16:33.628Z,16.70
2018-05-21T07:19:01.386Z,16.90
2018-05-21T07:21:29.172Z,17.10
2018-05-21T07:23:57.783Z,17.60
2018-05-21T07:26:25.536Z,17.50
2018-05-21T07:28:53.333Z,17.70
2018-05-21T07:31:21.924Z,18.20
2018-05-21T07:33:50.858Z,18.10
2018-05-21T07:36:18.617Z,18.30
2018-05-21T07:38:47.207Z,18.70
2018-05-21T07:41:14.791Z,18.60
2018-05-21T07:43:42.544Z,18.90
2018-05-21T07:46:10.228Z,19.00
2018-05-21T07:48:37.905Z,19.20
2018-05-21T07:51:05.592Z,19.30
2018-05-21T07:53:33.262Z,19.50
2018-05-21T07:56:00.908Z,19.70
2018-05-21T07:58:28.640Z,19.80
2018-05-21T08:00:56.440Z,20.00
2018-05-21T08:03:23.981Z,20.10
2018-05-21T08:05:52.562Z,20.30
2018-05-21T08:08:20.196Z,20.30
2018-05-21T08:10:47.838Z,20.50
2018-05-21T08:13:15.902Z,20.70
2018-05-21T08:15:43.565Z,20.90
2018-05-21T08:18:11.170Z,21.10
2018-05-21T08:20:38.836Z,21.20
2018-05-21T08:23:06.546Z,21.50
2018-05-21T08:25:34.259Z,21.70
2018-05-21T08:28:02.149Z,21.80
2018-05-21T08:30:29.855Z,21.90
2018-05-21T08:32:57.620Z,22.10
2018-05-21T08:35:25.962Z,22.20
2018-05-21T08:37:54.350Z,22.60
2018-05-21T08:40:25.793Z,22.50
2018-05-21T08:42:53.654Z,22.60
2018-05-21T08:45:21.496Z,22.80
2018-05-21T08:47:49.314Z,22.90
2018-05-21T08:50:17.133Z,22.90
2018-05-21T08:52:44.847Z,22.80
2018-05-21T08:55:12.492Z,22.80
2018-05-21T08:57:40.138Z,23.00
2018-05-21T09:00:07.775Z,23.00
2018-05-21T09:02:35.604Z,22.90
2018-05-21T09:05:04.033Z,23.20
2018-05-21T09:07:31.778Z,23.10
2018-05-21T09:09:59.404Z,23.30
2018-05-21T09:12:27.107Z,23.40
2018-05-21T09:15:01.381Z,23.60
2018-05-21T09:17:29.055Z,23.60
2018-05-21T09:19:56.772Z,23.70
2018-05-21T09:22:24.448Z,23.90
2018-05-21T09:24:52.200Z,24.00
2018-05-21T09:27:20.041Z,24.10
2018-05-21T09:29:47.818Z,24.00
2018-05-21T09:32:16.368Z,24.10
2018-05-21T09:34:44.102Z,24.10
2018-05-21T09:37:11.856Z,24.40
2018-05-21T09:39:39.548Z,24.60
2018-05-21T09:42:07.313Z,24.50
2018-05-21T09:44:35.227Z,24.60
2018-05-21T09:47:03.084Z,24.70
2018-05-21T09:49:30.784Z,24.90
2018-05-21T09:51:58.512Z,25.10
2018-05-21T09:54:26.334Z,25.00
2018-05-21T09:56:54.897Z,25.10
2018-05-21T09:59:23.416Z,25.30
2018-05-21T10:01:51.246Z,25.30
2018-05-21T10:04:19.012Z,25.30
2018-05-21T10:06:46.661Z,25.50
2018-05-21T10:09:14.652Z,25.60
2018-05-21T10:11:43.258Z,25.40
2018-05-21T10:14:11.067Z,25.40
2018-05-21T10:16:38.845Z,25.60
2018-05-21T10:19:09.490Z,25.90
2018-05-21T10:21:37.308Z,25.80
2018-05-21T10:24:04.999Z,25.90
2018-05-21T10:26:32.732Z,26.00
2018-05-21T10:29:00.602Z,25.90
2018-05-21T10:31:28.440Z,26.00
2018-05-21T10:33:56.266Z,26.10
2018-05-21T10:36:23.936Z,26.40
2018-05-21T10:38:51.658Z,26.60
2018-05-21T10:41:19.680Z,26.50
2018-05-21T10:43:48.343Z,26.40
2018-05-21T10:46:16.326Z,26.30
2018-05-21T10:48:44.124Z,26.30
2018-05-21T10:51:11.856Z,26.50
2018-05-21T10:53:39.617Z,26.80
2018-05-21T10:56:07.449Z,26.90
2018-05-21T10:58:35.294Z,27.10
2018-05-21T11:01:03.449Z,27.20
2018-05-21T11:03:31.156Z,27.00
2018-05-21T11:05:59.074Z,27.10
2018-05-21T11:08:26.842Z,27.30
2018-05-21T11:10:55.284Z,27.20
2018-05-21T11:13:22.904Z,27.20
2018-05-21T11:15:50.763Z,27.20
2018-05-21T11:18:18.574Z,27.20
2018-05-21T11:20:46.226Z,27.40
2018-05-21T11:23:14.034Z,27.70
2018-05-21T11:25:41.807Z,27.70
2018-05-21T11:28:10.517Z,27.60
2018-05-21T11:30:38.199Z,27.80
2018-05-21T11:33:06.875Z,27.80
2018-05-21T11:35:34.639Z,27.90
2018-05-21T11:38:02.367Z,27.60
2018-05-21T11:40:30.882Z,27.50
2018-05-21T11:42:59.648Z,27.40
2018-05-21T11:45:28.242Z,27.60
2018-05-21T11:47:56.132Z,27.50
2018-05-21T11:50:24.034Z,27.60
2018-05-21T11:52:51.900Z,27.60
2018-05-21T11:55:19.572Z,27.60
2018-05-21T11:57:48.077Z,27.60
2018-05-21T12:00:15.919Z,27.50
2018-05-21T12:02:43.684Z,27.80
2018-05-21T12:05:11.432Z,27.80
2018-05-21T12:07:39.295Z,27.90
2018-05-21T12:10:06.906Z,27.80
2018-05-21T12:12:34.688Z,27.70
2018-05-21T12:15:02.545Z,27.60
2018-05-21T12:17:30.246Z,27.40
2018-05-21T12:19:58.013Z,27.20
2018-05-21T12:22:26.119Z,26.80
2018-05-21T12:24:53.910Z,26.30
2018-05-21T12:27:21.573Z,26.10
2018-05-21T12:29:49.299Z,25.90
2018-05-21T12:32:17.008Z,25.80
2018-05-21T12:34:45.520Z,25.90
2018-05-21T12:37:13.316Z,26.10
2018-05-21T12:39:41.047Z,26.20
2018-05-21T12:42:08.831Z,26.30
2018-05-21T12:47:14.945Z,26.30
2018-05-21T12:49:42.795Z,26.40
2018-05-21T12:52:11.392Z,26.90
2018-05-21T12:54:39.232Z,26.80
2018-05-21T12:57:07.109Z,27.10
2018-05-21T12:59:35.572Z,27.30
2018-05-21T13:02:03.486Z,27.30
2018-05-21T13:04:31.954Z,27.30
2018-05-21T13:06:59.722Z,27.20
2018-05-21T13:09:27.341Z,27.00
2018-05-21T13:11:55.003Z,27.00
2018-05-21T13:14:22.625Z,26.90
2018-05-21T13:16:50.471Z,27.10
2018-05-21T13:19:18.301Z,26.90
2018-05-21T13:21:53.460Z,26.90
2018-05-21T13:24:21.036Z,26.90
2018-05-21T13:26:48.717Z,26.70
2018-05-21T13:29:16.539Z,26.60
2018-05-21T13:31:44.424Z,26.40
2018-05-21T13:34:12.874Z,26.10
2018-05-21T13:36:40.683Z,26.10
2018-05-21T13:39:08.903Z,25.90
2018-05-21T13:41:36.772Z,25.80
2018-05-21T13:44:04.536Z,25.90
2018-05-21T13:46:32.349Z,26.00
2018-05-21T13:49:00.101Z,25.90
2018-05-21T13:51:37.267Z,25.90
2018-05-21T13:54:05.204Z,25.80
2018-05-21T13:56:32.910Z,25.70
2018-05-21T13:59:00.803Z,25.60
2018-05-21T14:01:28.588Z,25.60
2018-05-21T14:03:56.365Z,25.70
2018-05-21T14:06:24.118Z,25.80
2018-05-21T14:08:51.958Z,25.70
2018-05-21T14:11:20.416Z,25.40
2018-05-21T14:13:48.943Z,25.40
2018-05-21T14:16:16.880Z,25.00
2018-05-21T14:18:44.577Z,24.40
2018-05-21T14:21:12.486Z,24.00
2018-05-21T14:23:40.299Z,23.60
2018-05-21T14:26:08.116Z,23.30
2018-05-21T14:28:51.568Z,23.10
2018-05-21T14:31:20.300Z,22.50
2018-05-21T14:33:48.429Z,22.50
2018-05-21T14:36:16.112Z,22.50
2018-05-21T14:38:44.595Z,22.20
2018-05-21T14:41:12.387Z,22.20
2018-05-21T14:43:40.144Z,22.10
2018-05-21T14:46:07.942Z,22.00
2018-05-21T14:48:35.629Z,21.90
2018-05-21T14:51:03.382Z,21.70
2018-05-21T14:53:31.010Z,21.70
2018-05-21T14:55:58.798Z,21.60
2018-05-21T14:58:26.432Z,21.60
2018-05-21T15:00:54.063Z,21.50
2018-05-21T15:03:22.486Z,21.50
2018-05-21T15:05:51.088Z,21.50
2018-05-21T15:08:18.984Z,21.40
2018-05-21T15:10:46.904Z,21.40
2018-05-21T15:13:14.708Z,21.40
2018-05-21T15:15:42.408Z,21.30
2018-05-21T15:18:10.188Z,21.30
2018-05-21T15:20:37.932Z,21.20
2018-05-21T15:23:05.751Z,21.20
2018-05-21T15:25:33.520Z,21.10
2018-05-21T15:28:01.284Z,21.10
2018-05-21T15:30:29.046Z,21.10
2018-05-21T15:32:56.832Z,21.10
2018-05-21T15:35:33.864Z,21.10
2018-05-21T15:38:01.745Z,21.10
2018-05-21T15:40:29.552Z,21.10
2018-05-21T15:42:57.334Z,21.00
2018-05-21T15:45:25.001Z,21.10
2018-05-21T15:47:52.767Z,21.10
2018-05-21T15:50:20.551Z,21.10
2018-05-21T15:52:48.437Z,21.00
2018-05-21T15:55:16.129Z,21.00
2018-05-21T15:57:43.721Z,21.00
2018-05-21T16:00:11.364Z,21.00
2018-05-21T16:02:39.224Z,21.00
2018-05-21T16:05:06.934Z,21.00
2018-05-21T16:07:34.637Z,20.90
2018-05-21T16:10:05.267Z,20.80
2018-05-21T16:12:32.947Z,20.70
2018-05-21T16:15:00.578Z,20.70
2018-05-21T16:17:28.251Z,20.60
2018-05-21T16:19:55.902Z,20.60
2018-05-21T16:22:23.577Z,20.50
2018-05-21T16:24:51.239Z,20.50
2018-05-21T16:27:18.918Z,20.40
2018-05-21T16:29:46.633Z,20.30
2018-05-21T16:32:14.344Z,20.30
2018-05-21T16:34:42.091Z,20.30
2018-05-21T16:37:09.713Z,20.20
2018-05-21T16:39:37.365Z,20.20
2018-05-21T16:42:05.054Z,20.20
2018-05-21T16:44:32.743Z,20.20
2018-05-21T16:47:00.347Z,20.10
2018-05-21T16:49:28.019Z,20.10
2018-05-21T16:51:56.635Z,20.00
2018-05-21T16:54:24.384Z,20.00
2018-05-21T16:56:52.139Z,20.00
2018-05-21T16:59:19.918Z,20.00
2018-05-21T17:01:47.665Z,19.90
2018-05-21T17:04:15.296Z,19.90
2018-05-21T17:06:43.004Z,19.80
2018-05-21T17:09:10.728Z,19.80
2018-05-21T17:11:38.457Z,19.70
2018-05-21T17:14:06.044Z,19.60
2018-05-21T17:16:34.472Z,19.50
2018-05-21T17:19:02.145Z,19.50
2018-05-21T17:21:29.863Z,19.50
2018-05-21T17:23:57.614Z,19.40
2018-05-21T17:26:54.785Z,19.40
2018-05-21T17:29:22.521Z,19.40
2018-05-21T17:31:50.177Z,19.30
2018-05-21T17:34:17.859Z,19.40
2018-05-21T17:36:46.379Z,19.30
2018-05-21T17:39:14.092Z,19.30
2018-05-21T17:41:41.826Z,19.30
2018-05-21T17:44:09.583Z,19.20
2018-05-21T17:46:37.258Z,19.20
2018-05-21T17:49:04.939Z,19.10
2018-05-21T17:51:32.560Z,19.10
2018-05-21T17:54:00.291Z,19.00
2018-05-21T17:56:28.644Z,19.00
2018-05-21T17:58:56.379Z,18.90
2018-05-21T18:01:23.947Z,18.90
2018-05-21T18:03:51.643Z,18.90
2018-05-21T18:06:20.105Z,18.70
2018-05-21T18:08:47.821Z,18.70
2018-05-21T18:11:15.603Z,18.70
2018-05-21T18:13:43.299Z,18.60
2018-05-21T18:16:11.069Z,18.50
2018-05-21T18:18:38.847Z,18.40
2018-05-21T18:21:07.249Z,18.30
2018-05-21T18:23:34.954Z,18.30
2018-05-21T18:26:02.810Z,18.20
2018-05-21T18:28:30.605Z,18.10
2018-05-21T18:30:58.439Z,18.00
2018-05-21T18:33:26.213Z,18.00
2018-05-21T18:35:54.039Z,18.00
2018-05-21T18:38:21.830Z,17.80
2018-05-21T18:40:49.623Z,17.80
2018-05-21T18:43:17.360Z,17.70
2018-05-21T18:45:45.155Z,17.70
2018-05-21T18:48:12.741Z,17.60
2018-05-21T18:50:41.254Z,17.50
2018-05-21T18:53:09.002Z,17.40
2018-05-21T18:55:36.701Z,17.40
2018-05-21T18:58:04.335Z,17.30
2018-05-21T19:00:32.014Z,17.30
2018-05-21T19:02:59.676Z,17.20
2018-05-21T19:05:28.023Z,17.20
2018-05-21T19:07:55.674Z,17.10
2018-05-21T19:10:23.336Z,17.00
2018-05-21T19:12:51.802Z,16.90
2018-05-21T19:15:19.454Z,16.80
2018-05-21T19:17:47.121Z,16.80
2018-05-21T19:20:14.706Z,16.70
2018-05-21T19:22:43.081Z,16.60
2018-05-21T19:25:11.553Z,16.50
2018-05-21T19:27:39.229Z,16.50
2018-05-21T19:30:06.768Z,16.50
2018-05-21T19:32:34.389Z,16.40
2018-05-21T19:35:02.005Z,16.40
2018-05-21T19:37:29.533Z,16.40
2018-05-21T19:39:57.060Z,16.30
2018-05-21T19:42:24.646Z,16.30
2018-05-21T19:44:52.198Z,16.20
2018-05-21T19:47:19.852Z,16.10
2018-05-21T19:49:47.464Z,16.10
2018-05-21T19:52:15.038Z,16.00
2018-05-21T19:54:42.672Z,16.00
2018-05-21T19:57:10.271Z,16.00
2018-05-21T19:59:37.904Z,15.90
2018-05-21T20:02:05.471Z,15.80
2018-05-21T20:04:33.906Z,15.80
2018-05-21T20:07:01.465Z,15.70
2018-05-21T20:09:29.009Z,15.70
2018-05-21T20:11:56.530Z,15.70
2018-05-21T20:14:24.098Z,15.70
2018-05-21T20:16:51.696Z,15.70
2018-05-21T20:19:19.303Z,15.60
2018-05-21T20:21:46.873Z,15.60
2018-05-21T20:24:15.271Z,15.60
2018-05-21T20:26:43.045Z,15.50
2018-05-21T20:29:10.672Z,15.50
2018-05-21T20:31:38.295Z,15.50
2018-05-21T20:34:07.056Z,15.50
2018-05-21T20:36:34.656Z,15.50
2018-05-21T20:39:02.397Z,15.50
2018-05-21T20:41:30.837Z,15.40
2018-05-21T20:43:59.206Z,15.40
2018-05-21T20:46:27.555Z,15.40
2018-05-21T20:48:55.171Z,15.40
2018-05-21T20:51:22.783Z,15.40
2018-05-21T20:53:50.371Z,15.30
2018-05-21T20:56:19.590Z,15.20
2018-05-21T20:58:47.157Z,15.20
2018-05-21T21:01:14.833Z,15.20
2018-05-21T21:03:42.480Z,15.20
2018-05-21T21:06:10.127Z,15.20
2018-05-21T21:08:37.693Z,15.10
2018-05-21T21:11:05.357Z,15.10
2018-05-21T21:13:32.967Z,15.10
2018-05-21T21:16:00.577Z,15.10
2018-05-21T21:18:28.155Z,15.00
2018-05-21T21:20:55.780Z,15.00
2018-05-21T21:23:24.148Z,14.90
2018-05-21T21:25:51.652Z,14.90
2018-05-21T21:28:19.285Z,14.90
2018-05-21T21:30:47.593Z,14.90
2018-05-21T21:33:15.210Z,14.80
2018-05-21T21:35:42.743Z,14.80
2018-05-21T21:38:10.395Z,14.80
2018-05-21T21:40:37.988Z,14.70
2018-05-21T21:43:05.604Z,14.70
2018-05-21T21:45:33.254Z,14.70
2018-05-21T21:48:00.831Z,14.70
2018-05-21T21:50:28.382Z,14.70
2018-05-21T21:52:56.004Z,14.70
2018-05-21T21:55:23.599Z,14.60
2018-05-21T21:57:51.150Z,14.60
2018-05-21T22:00:18.709Z,14.60
2018-05-21T22:02:46.317Z,14.60
2018-05-21T22:05:13.891Z,14.60
2018-05-21T22:07:41.463Z,14.60
2018-05-21T22:10:09.138Z,14.60
2018-05-21T22:12:37.427Z,14.60
2018-05-21T22:15:05.043Z,14.60
2018-05-21T22:17:32.624Z,14.60
2018-05-21T22:20:00.244Z,14.60
2018-05-21T22:22:27.903Z,14.60
2018-05-21T22:24:55.497Z,14.60
2018-05-21T22:27:23.074Z,14.70
2018-05-21T22:29:51.417Z,14.70
2018-05-21T22:32:19.006Z,14.60
2018-05-21T22:34:47.385Z,14.70
2018-05-21T22:37:17.032Z,14.70
2018-05-21T22:39:44.714Z,14.70
2018-05-21T22:42:12.250Z,14.70
2018-05-21T22:44:41.794Z,14.70
2018-05-21T22:47:09.444Z,14.80
2018-05-21T22:49:37.065Z,14.80
2018-05-21T22:52:04.775Z,14.80
2018-05-21T22:54:36.331Z,14.80
2018-05-21T22:57:03.954Z,14.80
2018-05-21T22:59:31.502Z,14.80
2018-05-21T23:01:59.160Z,14.80
2018-05-21T23:04:27.629Z,14.80
2018-05-21T23:06:56.019Z,14.80
2018-05-21T23:09:23.588Z,14.70
2018-05-21T23:11:51.257Z,14.80
2018-05-21T23:14:19.004Z,14.80
2018-05-21T23:16:46.591Z,14.80
2018-05-21T23:19:14.156Z,14.80
2018-05-21T23:21:41.907Z,14.80
2018-05-21T23:24:09.707Z,14.80
2018-05-21T23:26:37.469Z,14.80
2018-05-21T23:29:05.189Z,14.80
2018-05-21T23:31:32.920Z,14.80
2018-05-21T23:34:00.540Z,14.80
2018-05-21T23:36:28.166Z,14.80
2018-05-21T23:38:56.626Z,14.80
2018-05-21T23:41:24.337Z,14.80
2018-05-21T23:43:51.988Z,14.80
2018-05-21T23:46:19.577Z,14.80
2018-05-21T23:48:47.293Z,14.80
2018-05-21T23:51:15.611Z,14.80
2018-05-21T23:53:43.226Z,14.70
2018-05-21T23:56:11.614Z,14.80
2018-05-21T23:58:39.226Z,14.70
